Sohar Majis, Oman
Current Conditions -  °F | °C
As of 6:00 PM on Friday 28 Nov 2014 (Local Time) from OMFJ Reporting Station
Few Clouds Few Clouds  
Wind Chill: 84°   Ceiling: Unl
Heat Index: 84°   Visibility: 5mi
Dew Point: 52°   Wind: 12mph
Humidity: 33%   Direction: 280°W
Pressure: 29.91"   Gusts: NA
Location:  24.47°N, 56.63°E
Report Text: OMFJ 281400Z 28010KT 8000 FEW035 29/11 Q1013 A2992
Loading
Personal Weather Stations






























Interactive Weather Map New forecast layout! Learn more

10-Day Weather Forecast

Advertisements
Track Severe Weather on mobile